Time;durP1;ratioP1;P1;durP2;ratioP2;P2;SDS_P1;SDS_P2;PMS_P1;PMS_P2;Temp;Humidity;BMP_temperature;BMP_pressure;BME280_temperature;BME280_humidity;BME280_pressure;Samples;Min_cycle;Max_cycle;Signal;HPM_P1;HPM_P2
2022/04/19 00:02:10;;;;;;;19.35;9.23;;;;;;;7.30;46.11;99973.20;2118344;83;29365;-63
2022/04/19 00:05:14;;;;;;;15.98;8.30;;;;;;;7.32;45.78;99973.61;2118320;83;27877;-63
2022/04/19 00:08:20;;;;;;;15.17;9.00;;;;;;;7.35;45.43;99975.67;2118465;83;28656;-63
2022/04/19 00:11:26;;;;;;;17.40;8.80;;;;;;;7.39;45.40;99972.40;2118202;83;31649;-63
2022/04/19 00:14:34;;;;;;;15.85;9.00;;;;;;;7.43;45.22;99966.02;2118212;83;33364;-63
2022/04/19 00:17:38;;;;;;;17.77;9.45;;;;;;;7.48;45.17;99957.82;2118579;83;29372;-63
2022/04/19 00:20:45;;;;;;;20.70;10.37;;;;;;;7.49;45.16;99959.11;2119170;83;27968;-64
2022/04/19 00:23:50;;;;;;;20.32;9.10;;;;;;;7.52;45.18;99956.31;2118215;83;28635;-64
2022/04/19 00:26:55;;;;;;;20.97;10.43;;;;;;;7.52;45.16;99957.66;2118268;83;31368;-63
2022/04/19 00:30:01;;;;;;;19.40;11.97;;;;;;;7.52;45.19;99952.77;2118271;83;32971;-63
2022/04/19 00:33:11;;;;;;;15.65;9.83;;;;;;;7.51;45.25;99943.04;2118258;83;29335;-64
2022/04/19 00:36:21;;;;;;;21.62;9.55;;;;;;;7.50;45.24;99940.85;2118333;83;27865;-63
2022/04/19 00:39:27;;;;;;;18.73;10.08;;;;;;;7.49;45.29;99936.45;2086130;85;29196;-63
2022/04/19 00:42:33;;;;;;;21.05;10.80;;;;;;;7.46;45.33;99931.25;2072634;84;31018;-63
2022/04/19 00:45:42;;;;;;;22.00;10.80;;;;;;;7.45;45.35;99935.69;2066478;85;33130;-64
2022/04/19 00:48:49;;;;;;;22.17;10.38;;;;;;;7.41;45.49;99934.12;2066571;85;29334;-64
2022/04/19 00:51:57;;;;;;;19.07;9.48;;;;;;;7.37;45.47;99923.18;2066605;85;27831;-63
2022/04/19 00:55:04;;;;;;;20.48;10.15;;;;;;;7.36;45.57;99925.92;2066526;85;28687;-64
2022/04/19 00:58:11;;;;;;;17.98;9.90;;;;;;;7.30;45.57;99928.35;2066178;85;31056;-63
2022/04/19 01:01:22;;;;;;;18.65;10.08;;;;;;;7.25;45.61;99932.55;2067062;85;32965;-63
2022/04/19 01:04:34;;;;;;;19.87;9.68;;;;;;;7.22;45.62;99932.67;2066389;85;29365;-63
2022/04/19 01:07:39;;;;;;;19.95;9.05;;;;;;;7.18;45.68;99934.20;2066470;85;27872;-64
2022/04/19 01:10:46;;;;;;;16.60;9.28;;;;;;;7.13;45.76;99929.92;2066477;85;28637;-63
2022/04/19 01:13:55;;;;;;;18.90;8.75;;;;;;;7.08;45.74;99923.06;2066415;85;31011;-63
2022/04/19 01:17:03;;;;;;;16.42;9.20;;;;;;;7.04;45.81;99918.78;2052790;85;33025;-63
2022/04/19 01:20:14;;;;;;;15.63;8.93;;;;;;;7.00;45.88;99924.70;2066509;85;29370;-63
2022/04/19 01:23:21;;;;;;;15.63;7.97;;;;;;;6.96;46.02;99923.97;2065719;85;27963;-63
2022/04/19 01:26:30;;;;;;;17.42;8.65;;;;;;;6.91;45.99;99918.44;2066336;85;28647;-63
2022/04/19 01:29:34;;;;;;;15.43;7.97;;;;;;;6.87;46.05;99915.48;2066370;85;30994;-62
2022/04/19 01:32:39;;;;;;;13.95;7.70;;;;;;;6.82;46.03;99906.36;2066462;85;33054;-63
2022/04/19 01:35:48;;;;;;;11.10;6.85;;;;;;;6.79;45.98;99907.33;2065985;85;35044;-63
2022/04/19 01:39:01;;;;;;;13.98;6.97;;;;;;;6.75;46.11;99900.88;2065998;85;28096;-63
2022/04/19 01:42:17;;;;;;;14.40;7.15;;;;;;;6.70;46.03;99899.73;2074814;84;29989;-63
2022/04/19 01:45:25;;;;;;;14.33;6.78;;;;;;;6.67;45.99;99902.52;2085886;85;32359;-64
2022/04/19 01:48:29;;;;;;;10.55;6.50;;;;;;;6.65;46.12;99905.69;2086982;85;32980;-63
2022/04/19 01:51:40;;;;;;;16.27;6.75;;;;;;;6.63;46.06;99903.55;2086903;85;29379;-63
2022/04/19 01:54:48;;;;;;;13.15;7.12;;;;;;;6.61;46.26;99910.28;2117431;83;27952;-63
2022/04/19 01:58:00;;;;;;;14.28;8.28;;;;;;;6.60;46.28;99897.05;2118203;83;28659;-64
2022/04/19 02:01:05;;;;;;;13.13;7.37;;;;;;;6.60;46.34;99903.70;2118181;83;31041;-64
2022/04/19 02:04:14;;;;;;;16.35;8.75;;;;;;;6.59;46.52;99896.64;2118057;83;32965;-63
2022/04/19 02:07:23;;;;;;;15.55;7.75;;;;;;;6.58;46.62;99897.09;2118161;83;29321;-64
2022/04/19 02:10:32;;;;;;;14.03;7.97;;;;;;;6.57;46.67;99903.81;2118184;83;27833;-64
2022/04/19 02:13:38;;;;;;;15.60;8.00;;;;;;;6.58;46.84;99905.55;2118118;83;28658;-63
2022/04/19 02:16:42;;;;;;;16.60;8.58;;;;;;;6.57;46.84;99890.52;2117855;83;31100;-64
2022/04/19 02:19:50;;;;;;;13.83;7.15;;;;;;;6.59;46.97;99887.33;2118026;83;32999;-64
2022/04/19 02:22:54;;;;;;;11.90;6.70;;;;;;;6.58;46.96;99889.10;2118274;83;29340;-64
2022/04/19 02:25:58;;;;;;;15.98;7.15;;;;;;;6.57;46.91;99891.36;2117467;83;27959;-64
2022/04/19 02:29:03;;;;;;;12.33;7.13;;;;;;;6.54;46.92;99887.48;2116595;83;28657;-64
2022/04/19 02:32:13;;;;;;;11.75;6.78;;;;;;;6.45;47.00;99875.44;2118085;83;31087;-64
2022/04/19 02:35:23;;;;;;;16.93;6.97;;;;;;;6.50;47.09;99889.41;2117906;83;33129;-65
2022/04/19 02:38:35;;;;;;;11.80;7.08;;;;;;;6.48;47.10;99877.11;2118075;83;29332;-64
2022/04/19 02:41:42;;;;;;;12.23;6.72;;;;;;;6.44;47.10;99873.70;2117858;83;27967;-64
2022/04/19 02:44:49;;;;;;;9.43;5.67;;;;;;;6.39;47.07;99879.18;2118280;83;28907;-62
2022/04/19 02:48:05;;;;;;;12.28;5.95;;;;;;;6.36;47.00;99883.32;2118212;83;31077;-63
2022/04/19 02:51:09;;;;;;;10.72;5.85;;;;;;;6.32;47.05;99888.80;2117874;83;32988;-62
2022/04/19 02:54:17;;;;;;;9.98;6.05;;;;;;;6.28;46.90;99884.55;2118278;83;29354;-63
2022/04/19 02:57:26;;;;;;;12.98;5.50;;;;;;;6.23;46.98;99888.69;2118313;83;28000;-62
2022/04/19 03:00:34;;;;;;;10.93;5.87;;;;;;;6.19;47.00;99887.95;2117693;83;29306;-62
2022/04/19 03:03:43;;;;;;;11.60;6.03;;;;;;;6.15;46.96;99884.14;2118340;83;31028;-64
2022/04/19 03:06:51;;;;;;;9.23;5.42;;;;;;;6.12;47.12;99879.81;2117981;83;33130;-63
2022/04/19 03:09:55;;;;;;;11.43;5.85;;;;;;;6.08;47.12;99879.52;2118460;83;29542;-63
2022/04/19 03:13:00;;;;;;;10.28;5.55;;;;;;;6.06;47.26;99872.06;2118472;83;27869;-62
2022/04/19 03:16:06;;;;;;;12.80;6.00;;;;;;;6.03;47.30;99871.72;2118465;83;28666;-63
2022/04/19 03:19:13;;;;;;;10.13;5.83;;;;;;;6.02;47.38;99866.44;2118306;83;31195;-63
2022/04/19 03:22:23;;;;;;;12.82;5.80;;;;;;;6.00;47.46;99865.63;2112021;84;30520;-63
2022/04/19 03:29:01;;;;;;;10.13;5.83;;;;;;;5.95;47.42;99862.27;2112025;84;27984;-62
2022/04/19 03:32:05;;;;;;;11.15;5.92;;;;;;;5.93;47.40;99868.51;2112344;84;28849;-63
2022/04/19 03:35:16;;;;;;;9.38;5.03;;;;;;;5.91;47.42;99865.03;2112399;84;31031;-63
2022/04/19 03:38:25;;;;;;;7.92;5.08;;;;;;;5.90;47.39;99867.73;2111807;84;33424;-63
2022/04/19 03:41:30;;;;;;;9.35;5.28;;;;;;;5.88;47.58;99865.59;2112317;84;29348;-63
2022/04/19 03:44:35;;;;;;;10.68;5.33;;;;;;;5.84;47.60;99866.17;2112605;84;27967;-63
2022/04/19 03:47:44;;;;;;;10.48;5.50;;;;;;;5.81;47.56;99862.77;2112364;84;28728;-62
2022/04/19 03:50:51;;;;;;;12.13;5.67;;;;;;;5.78;47.63;99860.62;2112286;83;31024;-63
2022/04/19 03:53:56;;;;;;;8.18;5.37;;;;;;;5.73;47.60;99859.92;2111733;84;33997;-62
2022/04/19 03:57:04;;;;;;;9.65;5.12;;;;;;;5.68;47.59;99863.67;2112410;84;29339;-63
2022/04/19 04:00:12;;;;;;;10.65;5.30;;;;;;;5.62;47.69;99852.81;2111598;84;27993;-62
2022/04/19 04:03:24;;;;;;;10.48;5.67;;;;;;;5.59;47.87;99855.13;2112153;84;28640;-62
2022/04/19 04:06:35;;;;;;;11.20;6.22;;;;;;;5.53;47.88;99859.33;2111817;83;31538;-63
2022/04/19 04:09:51;;;;;;;10.23;5.37;;;;;;;5.49;47.92;99859.02;2112230;84;32974;-63
2022/04/19 04:13:09;;;;;;;10.38;6.17;;;;;;;5.45;47.93;99853.44;2110976;84;28000;-62
2022/04/19 04:16:18;;;;;;;8.35;5.47;;;;;;;5.43;48.01;99860.11;2111917;83;27957;-62
2022/04/19 04:19:32;;;;;;;9.70;5.60;;;;;;;5.44;47.95;99861.85;2112216;83;28632;-62
2022/04/19 04:22:52;;;;;;;9.48;5.65;;;;;;;5.42;48.09;99862.36;2111806;84;31516;-63
2022/04/19 04:26:07;;;;;;;13.93;5.58;;;;;;;5.43;48.06;99861.92;2111897;83;29004;-62
2022/04/19 04:29:12;;;;;;;10.90;5.47;;;;;;;5.44;48.22;99866.31;2112321;83;29340;-62
2022/04/19 04:32:21;;;;;;;7.80;5.00;;;;;;;5.44;48.19;99878.27;2089894;84;27984;-62
2022/04/19 04:35:25;;;;;;;9.08;5.28;;;;;;;5.41;48.22;99885.01;2112133;84;29436;-62
2022/04/19 04:38:30;;;;;;;9.87;5.63;;;;;;;5.38;48.34;99881.13;2089214;84;32479;-62
2022/04/19 04:41:37;;;;;;;10.70;5.95;;;;;;;5.40;48.40;99880.62;2110978;83;33017;-62
2022/04/19 04:44:45;;;;;;;11.50;5.78;;;;;;;5.41;48.43;99878.37;2114772;83;29331;-63
2022/04/19 04:51:30;;;;;;;12.15;5.70;;;;;;;5.46;48.51;99865.80;2114771;83;27992;-62
2022/04/19 04:54:49;;;;;;;11.55;5.28;;;;;;;5.52;48.59;99872.68;2115021;83;31048;-63
2022/04/19 04:57:57;;;;;;;8.33;5.20;;;;;;;5.57;48.54;99871.59;2115182;83;33141;-63
2022/04/19 05:01:02;;;;;;;8.88;4.90;;;;;;;5.59;48.53;99864.43;2115269;83;27986;-62
2022/04/19 05:04:06;;;;;;;8.18;4.97;;;;;;;5.66;48.42;99861.53;2115727;83;27900;-62
2022/04/19 05:07:15;;;;;;;8.50;4.87;;;;;;;5.72;48.44;99854.20;2115784;83;28692;-62
2022/04/19 05:10:21;;;;;;;8.55;5.08;;;;;;;5.76;48.37;99846.52;2078136;85;28271;-62
2022/04/19 05:13:24;;;;;;;13.50;5.25;;;;;;;5.82;48.34;99869.83;2114998;83;32918;-62
2022/04/19 05:16:31;;;;;;;14.40;5.25;;;;;;;5.85;48.33;99877.69;2113753;83;29384;-62
2022/04/19 05:19:36;;;;;;;8.60;4.53;;;;;;;5.96;48.44;99878.15;2115116;83;27790;-62
2022/04/19 05:22:40;;;;;;;10.05;5.08;;;;;;;6.00;48.18;99878.92;2115753;83;28649;-62
2022/04/19 05:25:50;;;;;;;8.77;4.93;;;;;;;6.07;48.29;99876.45;2115885;83;31667;-62
2022/04/19 05:28:57;;;;;;;8.80;4.30;;;;;;;6.11;48.23;99876.75;2115166;83;34268;-62
2022/04/19 05:32:05;;;;;;;10.28;5.60;;;;;;;6.12;48.54;99885.13;2115304;83;29376;-61
2022/04/19 05:35:09;;;;;;;9.73;4.50;;;;;;;6.08;48.36;99896.80;2115778;83;27812;-62
2022/04/19 05:38:18;;;;;;;9.87;3.37;;;;;;;6.02;48.36;99901.89;2115957;83;28649;-62
2022/04/19 05:41:23;;;;;;;7.22;4.45;;;;;;;5.92;48.51;99919.06;2115621;83;31057;-62
2022/04/19 05:44:28;;;;;;;7.87;4.95;;;;;;;5.71;50.23;99920.23;2115407;83;32967;-63
2022/04/19 05:47:33;;;;;;;12.95;5.28;;;;;;;5.41;53.62;99918.22;2115334;83;29460;-62
2022/04/19 05:50:38;;;;;;;9.95;5.92;;;;;;;5.18;53.37;99893.30;2097308;84;28074;-62
2022/04/19 05:53:49;;;;;;;8.58;6.05;;;;;;;5.09;54.20;99881.67;2115806;83;28671;-62
2022/04/19 05:56:56;;;;;;;8.33;5.87;;;;;;;5.04;55.19;99880.95;2115201;83;27940;-62
2022/04/19 06:00:00;;;;;;;13.03;6.85;;;;;;;5.02;55.82;99876.56;2115571;83;33027;-62
2022/04/19 06:06:32;;;;;;;10.23;6.22;;;;;;;5.13;56.67;99877.53;2115428;83;28047;-61
2022/04/19 06:09:37;;;;;;;12.43;7.62;;;;;;;5.19;56.97;99882.23;2115595;83;28638;-62
2022/04/19 06:12:42;;;;;;;11.48;7.72;;;;;;;5.31;57.57;99883.13;2115733;83;35477;-62
2022/04/19 06:15:47;;;;;;;9.43;6.40;;;;;;;5.61;57.65;99883.85;2115695;83;32982;-62
2022/04/19 06:18:51;;;;;;;13.45;7.70;;;;;;;6.46;58.11;99881.14;2115685;83;35682;-63
2022/04/19 06:22:01;;;;;;;13.07;6.30;;;;;;;8.39;57.71;99841.70;2116898;83;27702;-63
2022/04/19 06:25:10;;;;;;;9.05;6.17;;;;;;;8.39;57.71;99841.70;2115756;83;28663;-64
2022/04/19 06:28:20;;;;;;;10.03;6.37;;;;;;;9.41;56.08;99859.88;2115631;83;31037;-64
2022/04/19 06:31:33;;;;;;;9.98;6.53;;;;;;;10.29;55.86;99843.11;2115408;83;33232;-64
2022/04/19 06:34:38;;;;;;;10.60;5.60;;;;;;;11.19;53.98;99847.36;2115672;83;29320;-63
2022/04/19 06:37:43;;;;;;;7.90;5.97;;;;;;;11.26;52.78;99853.22;2116243;83;28012;-63
2022/04/19 06:40:52;;;;;;;8.33;5.42;;;;;;;11.07;52.53;99849.44;2115815;83;28639;-64
2022/04/19 06:43:59;;;;;;;7.35;5.12;;;;;;;11.65;53.05;99850.43;2115565;83;30869;-63
2022/04/19 06:47:05;;;;;;;9.93;4.97;;;;;;;12.13;51.92;99861.39;2115717;83;33118;-63
2022/04/19 06:50:12;;;;;;;6.83;4.80;;;;;;;12.07;51.26;99858.62;2115372;83;29420;-64
2022/04/19 06:53:26;;;;;;;6.00;4.90;;;;;;;11.71;50.32;99850.52;2115890;83;27830;-63
2022/04/19 06:56:32;;;;;;;6.00;4.50;;;;;;;11.21;50.32;99866.06;2115467;83;29387;-64
2022/04/19 06:59:37;;;;;;;6.55;4.70;;;;;;;10.81;50.62;99863.91;2115806;83;31034;-63
2022/04/19 07:02:44;;;;;;;7.08;4.90;;;;;;;10.47;51.18;99857.30;2115927;83;33102;-63
2022/04/19 07:05:52;;;;;;;4.62;4.17;;;;;;;10.32;51.06;99862.14;2115682;83;29346;-63
2022/04/19 07:08:57;;;;;;;7.90;4.47;;;;;;;10.80;51.15;99855.47;2115865;83;27953;-63
2022/04/19 07:12:02;;;;;;;6.25;4.33;;;;;;;11.57;51.38;99857.22;2115120;83;29750;-64
2022/04/19 07:15:08;;;;;;;9.48;4.90;;;;;;;11.90;49.21;99860.12;2114841;83;31027;-64
2022/04/19 07:18:17;;;;;;;5.30;4.65;;;;;;;11.84;49.24;99858.69;2115010;83;32999;-64
2022/04/19 07:28:12;;;;;;;8.30;5.00;;;;;;;12.67;49.17;99869.17;2115064;83;27992;-63
2022/04/19 07:31:23;;;;;;;11.90;5.65;;;;;;;12.04;47.61;99839.16;2115005;83;31028;-63
2022/04/19 07:34:31;;;;;;;6.42;4.83;;;;;;;12.04;47.61;99839.16;2115401;83;32998;-63
2022/04/19 07:37:37;;;;;;;6.58;5.05;;;;;;;11.82;48.02;99863.28;2115860;83;29335;-63
2022/04/19 07:40:41;;;;;;;7.08;5.00;;;;;;;11.61;48.38;99859.61;2115598;83;28088;-64
2022/04/19 07:43:48;;;;;;;9.60;5.92;;;;;;;11.53;48.32;99866.79;2114878;83;28644;-63
2022/04/19 07:46:52;;;;;;;11.50;6.30;;;;;;;11.30;48.48;99859.28;2111860;84;31070;-64
2022/04/19 07:50:07;;;;;;;8.95;5.95;;;;;;;11.41;48.73;99864.86;2111916;84;33663;-64
2022/04/19 07:53:16;;;;;;;7.50;5.78;;;;;;;11.66;48.72;99861.55;2111811;83;29791;-64
2022/04/19 07:56:22;;;;;;;7.80;5.62;;;;;;;11.75;48.09;99871.34;2112316;84;27899;-64
2022/04/19 07:59:26;;;;;;;11.03;6.42;;;;;;;11.39;47.72;99872.13;2112109;84;28683;-64
2022/04/19 08:02:32;;;;;;;10.53;6.90;;;;;;;10.91;47.58;99874.47;2111481;84;31045;-64
2022/04/19 08:05:37;;;;;;;9.20;6.40;;;;;;;10.57;48.22;99872.87;2110548;83;32973;-64
2022/04/19 08:08:44;;;;;;;8.50;6.22;;;;;;;10.58;48.95;99878.61;2112186;84;29917;-63
2022/04/19 08:11:51;;;;;;;11.85;7.03;;;;;;;10.36;48.20;99880.23;2112234;83;27772;-63
2022/04/19 08:15:02;;;;;;;10.00;6.85;;;;;;;10.08;48.15;99888.45;2111823;84;28813;-63
2022/04/19 08:18:14;;;;;;;9.95;7.70;;;;;;;9.85;48.33;99887.88;2111704;84;31069;-64
2022/04/19 08:21:21;;;;;;;12.33;7.92;;;;;;;9.65;48.64;99884.47;2111792;84;34153;-63
2022/04/19 08:24:28;;;;;;;11.93;7.92;;;;;;;9.68;48.87;99888.78;2112219;83;29342;-64
2022/04/19 08:27:35;;;;;;;11.65;8.05;;;;;;;9.71;48.77;99891.30;2112093;84;27752;-64
2022/04/19 08:30:42;;;;;;;12.75;7.87;;;;;;;9.84;49.21;99892.86;2089276;84;29117;-63
2022/04/19 08:33:47;;;;;;;10.18;8.53;;;;;;;9.88;49.00;99893.95;2111986;84;31078;-63
2022/04/19 08:36:52;;;;;;;10.93;7.50;;;;;;;9.71;48.74;99892.15;2112163;84;35605;-63
2022/04/19 08:39:56;;;;;;;9.65;7.83;;;;;;;9.55;49.23;99896.11;2112098;83;29372;-63
2022/04/19 08:43:01;;;;;;;9.98;7.80;;;;;;;9.56;49.67;99902.31;2090018;84;27991;-64
2022/04/19 08:46:08;;;;;;;11.83;8.35;;;;;;;9.46;49.66;99897.91;2114860;83;33828;-64
2022/04/19 08:49:13;;;;;;;15.43;10.20;;;;;;;9.39;49.83;99909.88;2117646;83;31063;-64
2022/04/19 08:52:17;;;;;;;16.80;13.78;;;;;;;9.26;49.97;99913.19;2115568;83;33107;-63
2022/04/19 08:58:48;;;;;;;11.40;9.03;;;;;;;9.00;50.27;99917.16;2115347;83;27944;-64
2022/04/19 09:01:52;;;;;;;10.35;7.20;;;;;;;8.99;50.74;99914.55;2115680;83;28640;-64
2022/04/19 09:05:18;;;;;;;8.98;7.45;;;;;;;8.99;50.61;99925.23;2115643;83;31044;-64
2022/04/19 09:08:22;;;;;;;12.50;7.92;;;;;;;8.94;50.62;99933.48;2115687;83;32981;-64
2022/04/19 09:11:36;;;;;;;14.70;9.30;;;;;;;8.90;50.95;99937.23;2115247;83;29420;-63
2022/04/19 09:15:03;;;;;;;11.33;8.35;;;;;;;8.99;51.18;99941.26;2115527;83;27931;-63
2022/04/19 09:18:30;;;;;;;11.40;8.45;;;;;;;8.95;51.22;99937.88;2075629;85;28709;-64
2022/04/19 09:21:41;;;;;;;8.95;6.97;;;;;;;8.82;51.65;99937.60;2114667;83;30944;-65
2022/04/19 09:24:50;;;;;;;9.68;7.10;;;;;;;8.75;51.89;99946.87;2115023;83;32714;-64
2022/04/19 09:27:58;;;;;;;13.00;9.38;;;;;;;8.64;51.83;99941.55;2115176;83;28061;-63
2022/04/19 09:31:15;;;;;;;8.83;6.53;;;;;;;8.57;51.58;99946.80;2115534;83;27975;-64
2022/04/19 09:34:37;;;;;;;7.05;6.28;;;;;;;8.45;52.02;99953.54;2115218;83;28696;-64
2022/04/19 09:37:55;;;;;;;10.88;8.30;;;;;;;8.56;52.43;99958.42;2115487;83;31098;-64
2022/04/19 09:41:02;;;;;;;8.78;6.53;;;;;;;8.68;52.31;99956.98;2115363;83;33037;-63
2022/04/19 09:44:16;;;;;;;7.17;6.30;;;;;;;8.76;52.25;99956.61;2114946;83;29319;-63
2022/04/19 09:47:22;;;;;;;11.57;7.67;;;;;;;8.72;52.11;99964.37;2115696;83;27859;-63
2022/04/19 09:50:30;;;;;;;11.03;7.70;;;;;;;8.65;52.31;99954.45;2115398;83;28661;-63
2022/04/19 09:53:48;;;;;;;9.28;7.00;;;;;;;8.62;52.41;99967.45;2114989;83;31034;-64
2022/04/19 09:56:57;;;;;;;6.55;5.90;;;;;;;8.57;52.73;99956.59;2114982;83;33659;-63
2022/04/19 10:00:07;;;;;;;10.18;8.88;;;;;;;8.71;53.47;99962.15;2115033;84;29383;-63
2022/04/19 10:10:13;;;;;;;8.50;7.67;;;;;;;9.42;52.38;99964.05;2115144;83;31460;-63
2022/04/19 10:13:23;;;;;;;7.53;6.78;;;;;;;9.88;52.34;99962.63;2115495;83;32975;-63
2022/04/19 10:16:31;;;;;;;6.95;5.78;;;;;;;10.03;50.96;99966.32;2115300;83;29333;-65
2022/04/19 10:19:36;;;;;;;7.65;6.70;;;;;;;10.12;51.08;99956.45;2115565;83;27986;-64
2022/04/19 10:22:48;;;;;;;5.55;4.70;;;;;;;10.14;50.59;99968.44;2115861;83;28643;-64
2022/04/19 10:25:53;;;;;;;5.60;4.78;;;;;;;10.11;50.13;99974.80;2115744;83;30988;-64
2022/04/19 10:28:58;;;;;;;5.20;4.20;;;;;;;9.95;50.13;99981.90;2115861;83;33030;-64
2022/04/19 10:32:03;;;;;;;;;;;;;;;9.91;50.08;99978.53;2099575;83;29423;-63
2022/04/19 10:35:10;;;;;;;7.62;5.25;;;;;;;9.72;50.09;99973.27;2091932;84;28009;-63
2022/04/19 10:38:25;;;;;;;6.75;5.70;;;;;;;9.54;50.65;99976.40;2095647;84;28655;-63
2022/04/19 10:41:53;;;;;;;4.17;3.77;;;;;;;9.43;50.80;99984.50;2118736;83;31015;-63
2022/04/19 10:45:02;;;;;;;6.65;5.90;;;;;;;9.53;50.89;99986.24;2081796;85;32806;-63
2022/04/19 10:48:08;;;;;;;7.00;6.30;;;;;;;9.65;50.43;99991.45;2057978;85;29232;-63
2022/04/19 10:51:30;;;;;;;7.53;6.67;;;;;;;9.70;50.30;99995.22;2058076;85;28072;-63
2022/04/19 10:55:23;;;;;;;8.43;6.45;;;;;;;9.67;50.14;100002.94;2056883;85;28766;-66
2022/04/19 10:58:44;;;;;;;7.42;6.72;;;;;;;9.82;49.60;99984.37;2059399;86;31044;-64
2022/04/19 11:01:49;;;;;;;7.72;6.87;;;;;;;10.04;49.18;99992.14;2057247;86;32982;-62
2022/04/19 11:04:55;;;;;;;7.72;7.03;;;;;;;10.24;48.42;99984.88;2057539;86;37456;-63
2022/04/19 11:08:21;;;;;;;10.43;6.70;;;;;;;10.32;48.33;100000.03;2057504;85;27881;-63
2022/04/19 11:11:31;;;;;;;;;;;;;;;10.36;48.49;99994.91;2062338;86;28741;-62
2022/04/19 11:14:43;;;;;;;7.65;6.62;;;;;;;10.44;47.55;100002.08;2058740;85;31485;-63
2022/04/19 11:17:50;;;;;;;10.10;7.22;;;;;;;10.42;47.27;99999.11;2058824;85;32982;-63
2022/04/19 11:20:59;;;;;;;8.33;7.03;;;;;;;10.47;47.63;99999.24;2060748;86;29240;-63
2022/04/19 11:24:08;;;;;;;7.15;6.45;;;;;;;10.48;46.82;100001.46;2057328;85;27957;-64
2022/04/19 11:27:19;;;;;;;10.53;7.28;;;;;;;10.39;45.80;100011.31;2057423;85;28643;-63
2022/04/19 11:30:30;;;;;;;8.95;7.37;;;;;;;10.31;46.46;100007.67;2057478;86;31019;-63
2022/04/19 11:33:37;;;;;;;8.00;7.22;;;;;;;10.30;46.36;100012.18;2059513;86;33727;-63
2022/04/19 11:36:48;;;;;;;9.73;7.65;;;;;;;10.31;46.62;100005.00;2059810;85;29346;-63
2022/04/19 11:46:54;;;;;;;10.70;8.85;;;;;;;10.73;45.38;100005.01;1995522;88;31529;-63
2022/04/19 11:50:00;;;;;;;9.20;8.25;;;;;;;10.69;45.37;100004.78;2023348;87;33073;-63
2022/04/19 11:53:05;;;;;;;9.08;8.18;;;;;;;10.71;45.75;100001.54;2040122;87;29329;-64
2022/04/19 11:56:16;;;;;;;8.95;7.85;;;;;;;10.66;45.49;100006.28;2043294;86;28037;-64
2022/04/19 11:59:29;;;;;;;9.33;8.43;;;;;;;10.60;45.65;100007.94;2042960;86;28692;-63
2022/04/19 12:02:37;;;;;;;10.95;7.92;;;;;;;10.70;46.32;100011.86;2040133;87;30986;-64
2022/04/19 12:05:41;;;;;;;10.30;9.30;;;;;;;10.59;45.85;100010.26;2039896;87;32970;-64
2022/04/19 12:08:49;;;;;;;9.78;8.40;;;;;;;10.49;45.89;100011.23;2039733;87;29283;-64
2022/04/19 12:11:55;;;;;;;9.55;8.63;;;;;;;10.40;45.39;100024.64;2039882;87;28089;-65
2022/04/19 12:15:02;;;;;;;9.50;8.48;;;;;;;10.28;45.40;100015.86;2040036;87;28638;-66
2022/04/19 12:18:06;;;;;;;10.98;8.95;;;;;;;10.23;45.51;100014.77;2083702;84;31108;-65
2022/04/19 12:21:11;;;;;;;11.30;9.68;;;;;;;10.30;46.04;100009.50;2115453;83;33015;-67
2022/04/19 12:24:29;;;;;;;10.88;9.55;;;;;;;10.37;46.21;100011.38;2105080;83;29396;-65
2022/04/19 12:27:37;;;;;;;10.88;9.78;;;;;;;10.32;46.42;100006.73;2115109;83;27989;-63
2022/04/19 12:30:51;;;;;;;12.07;9.85;;;;;;;10.32;46.32;100008.06;2115120;83;29136;-64
2022/04/19 12:33:55;;;;;;;11.60;10.32;;;;;;;10.35;46.37;100010.59;2115221;83;31076;-64
2022/04/19 12:37:10;;;;;;;13.03;10.35;;;;;;;10.46;46.54;100010.90;2115183;83;32995;-64
2022/04/19 12:40:18;;;;;;;;;;;;;;;10.48;46.18;100006.81;2117552;83;29998;-63
2022/04/19 12:43:30;;;;;;;11.28;9.90;;;;;;;10.46;46.27;100008.22;2114173;83;28034;-64
2022/04/19 12:46:56;;;;;;;13.60;9.78;;;;;;;10.44;45.82;100003.42;2111441;83;29103;-64
2022/04/19 12:49:58;;;;;;;12.00;9.35;;;;;;;10.39;45.04;100004.62;2114027;83;31246;-65
2022/04/19 12:53:02;;;;;;;13.50;9.90;;;;;;;10.44;45.61;100009.27;2115326;83;33039;-64
2022/04/19 12:56:16;;;;;;;10.97;9.30;;;;;;;10.50;44.90;100007.61;2095564;83;29332;-64
2022/04/19 12:59:26;;;;;;;11.90;9.15;;;;;;;10.53;45.38;100002.55;2114947;84;27982;-64
2022/04/19 13:02:37;;;;;;;14.10;10.38;;;;;;;10.57;45.25;100007.64;2094249;83;28648;-64
2022/04/19 13:12:34;;;;;;;12.45;9.25;;;;;;;10.70;44.41;100007.84;2115049;83;29391;-65
2022/04/19 13:15:41;;;;;;;12.03;9.75;;;;;;;10.71;45.01;100010.92;2115440;83;27752;-65
2022/04/19 13:18:46;;;;;;;10.68;9.03;;;;;;;10.88;44.90;100007.78;2115367;83;29337;-66
2022/04/19 13:21:50;;;;;;;10.88;9.53;;;;;;;11.00;44.83;100005.74;2115396;83;33169;-67
2022/04/19 13:24:55;;;;;;;12.53;10.15;;;;;;;11.15;44.97;100002.69;2115386;83;32966;-66
2022/04/19 13:27:59;;;;;;;11.57;8.88;;;;;;;11.32;44.20;100007.56;2115136;84;29372;-71
2022/04/19 13:31:06;;;;;;;12.33;10.33;;;;;;;11.50;43.79;100010.98;2115450;83;27988;-69
2022/04/19 13:34:14;;;;;;;10.08;8.80;;;;;;;11.61;44.12;100003.65;2114286;83;28641;-68
2022/04/19 13:38:23;;;;;;;12.28;10.05;;;;;;;11.70;43.37;100008.00;2113357;83;31025;-69
2022/04/19 13:40:31;;;;;;;11.12;10.00;;;;;;;11.59;43.29;100005.55;2114976;83;33098;-68
2022/04/19 13:43:41;;;;;;;13.35;9.95;;;;;;;11.46;43.74;100006.73;2115831;83;29326;-70
2022/04/19 13:46:44;;;;;;;12.15;9.93;;;;;;;11.34;43.58;100009.19;2115463;83;27831;-70
2022/04/19 13:49:47;;;;;;;11.63;10.43;;;;;;;11.33;43.11;100012.82;2118336;83;28689;-76
2022/04/19 13:52:49;;;;;;;14.03;10.08;;;;;;;11.24;43.08;100018.73;2117896;83;31745;-72
2022/04/19 13:55:52;;;;;;;14.63;10.40;;;;;;;11.28;43.42;100009.53;2117907;83;33158;-72
2022/04/19 13:59:08;;;;;;;12.35;9.90;;;;;;;11.37;42.40;100013.04;2117539;84;29538;-71
2022/04/19 14:02:04;;;;;;;12.43;9.83;;;;;;;11.43;42.37;100012.27;2093886;84;27726;-71
2022/04/19 14:05:10;;;;;;;14.20;10.55;;;;;;;11.47;42.25;100013.83;2097624;84;28646;-71
2022/04/19 14:08:13;;;;;;;14.18;10.60;;;;;;;11.52;42.60;100019.31;2118125;83;31029;-73
2022/04/19 14:11:17;;;;;;;15.23;10.25;;;;;;;11.64;42.67;100020.91;2117604;83;33018;-71
2022/04/19 14:14:19;;;;;;;12.25;10.03;;;;;;;11.69;42.52;100019.69;2118050;84;29363;-71
2022/04/19 14:17:22;;;;;;;15.10;11.08;;;;;;;11.81;42.33;100019.91;2118171;84;27897;-71
2022/04/19 14:20:24;;;;;;;13.62;11.25;;;;;;;11.86;42.04;100020.50;2118124;83;28628;-71
2022/04/19 14:23:27;;;;;;;16.57;12.18;;;;;;;11.88;42.15;100040.07;2117992;83;31021;-70
2022/04/19 14:26:30;;;;;;;14.73;9.90;;;;;;;11.76;42.67;100033.60;2117757;83;33106;-71
2022/04/19 14:36:20;;;;;;;13.80;10.40;;;;;;;11.52;42.37;100042.12;2114796;83;28677;-72
2022/04/19 14:39:22;;;;;;;11.10;9.28;;;;;;;11.48;42.14;100043.27;2097513;84;31271;-73
2022/04/19 14:42:25;;;;;;;11.48;10.28;;;;;;;11.37;41.93;100045.23;2117587;84;32920;-73
2022/04/19 14:45:28;;;;;;;10.98;9.55;;;;;;;11.37;41.75;100054.61;2117794;83;29365;-73
2022/04/19 14:48:30;;;;;;;13.48;10.00;;;;;;;11.37;42.20;100047.91;2120287;83;28077;-72
2022/04/19 14:54:54;;;;;;;13.95;9.78;;;;;;;11.38;42.22;100049.64;2120501;83;31059;-71
2022/04/19 14:57:57;;;;;;;12.73;10.13;;;;;;;11.39;42.21;100050.03;2120144;83;32852;-71
2022/04/19 15:00:59;;;;;;;13.20;10.13;;;;;;;11.32;42.18;100052.66;2120846;83;29410;-71
2022/04/19 15:04:02;;;;;;;13.93;10.48;;;;;;;11.28;42.30;100058.29;2120624;83;27656;-71
2022/04/19 15:07:05;;;;;;;13.08;9.93;;;;;;;11.28;42.42;100055.61;2120550;83;28668;-73
2022/04/19 15:10:09;;;;;;;12.58;10.53;;;;;;;11.32;42.51;100060.70;2120520;83;31076;-73
2022/04/19 15:13:11;;;;;;;13.60;10.48;;;;;;;11.39;42.23;100056.73;2120701;83;32976;-73
2022/04/19 15:16:14;;;;;;;12.95;10.63;;;;;;;11.46;42.53;100053.22;2119997;83;29433;-73
2022/04/19 15:19:16;;;;;;;11.68;10.35;;;;;;;11.54;42.35;100060.83;2120748;83;27622;-73
2022/04/19 15:22:19;;;;;;;13.38;10.35;;;;;;;11.54;42.54;100057.66;2098216;83;28683;-73
2022/04/19 15:25:21;;;;;;;14.28;10.60;;;;;;;11.59;42.59;100059.21;2120686;83;31041;-72
2022/04/19 15:28:25;;;;;;;13.18;10.08;;;;;;;11.69;41.97;100065.77;2120495;83;33000;-73
2022/04/19 15:31:27;;;;;;;16.23;11.40;;;;;;;11.67;41.75;100063.64;2098400;83;29946;-71